Time;durP1;ratioP1;P1;durP2;ratioP2;P2;SDS_P1;SDS_P2;PMS_P1;PMS_P2;Temp;Humidity;BMP_temperature;BMP_pressure;BME280_temperature;BME280_humidity;BME280_pressure;Samples;Min_cycle;Max_cycle;Signal;HPM_P1;HPM_P2
2022/11/15 00:01:11;;;;;;;;;;;;;;;;;;2386732;62;1966;-75
2022/11/15 00:03:45;;;;;;;;;;;;;;;;;;2387000;62;975;-75
2022/11/15 00:06:18;;;;;;;;;;;;;;;;;;2386988;54;1214;-74
2022/11/15 00:08:51;;;;;;;;;;;;;;;;;;2386780;62;981;-75
2022/11/15 00:11:27;;;;;;;;;;;;;;;;;;2387038;62;1023;-75
2022/11/15 00:14:02;;;;;;;;;;;;;;;;;;2386952;54;1023;-75
2022/11/15 00:16:35;;;;;;;;;;;;;;;;;;2387022;62;1149;-75
2022/11/15 00:19:08;;;;;;;;;;;;;;;;;;2386883;62;1047;-75
2022/11/15 00:21:41;;;;;;;;;;;;;;;;;;2386598;62;1990;-75
2022/11/15 00:24:14;;;;;;;;;;;;;;;;;;2387221;62;966;-74
2022/11/15 00:26:50;;;;;;;;;;;;;;;;;;2386462;54;1224;-75
2022/11/15 00:29:23;;;;;;;;;;;;;;;;;;2387000;54;971;-75
2022/11/15 00:31:56;;;;;;;;;;;;;;;;;;2386780;62;1029;-75
2022/11/15 00:34:29;;;;;;;;;;;;;;;;;;2386751;62;1010;-75
2022/11/15 00:37:02;;;;;;;;;;;;;;;;;;2386649;62;1209;-75
2022/11/15 00:39:36;;;;;;;;;;;;;;;;;;2386706;62;1978;-75
2022/11/15 00:42:12;;;;;;;;;;;;;;;;;;2386815;62;1038;-75
2022/11/15 00:44:45;;;;;;;;;;;;;;;;;;2386892;54;884;-75
2022/11/15 00:47:18;;;;;;;;;;;;;;;;;;2386568;54;1207;-75
2022/11/15 00:49:51;;;;;;;;;;;;;;;;;;2386659;62;1019;-75
2022/11/15 00:52:24;;;;;;;;;;;;;;;;;;2386894;54;1070;-75
2022/11/15 00:54:57;;;;;;;;;;;;;;;;;;2386648;62;928;-75
2022/11/15 00:57:33;;;;;;;;;;;;;;;;;;2386745;62;1256;-75
2022/11/15 01:00:07;;;;;;;;;;;;;;;;;;2386437;62;1915;-76
2022/11/15 01:02:40;;;;;;;;;;;;;;;;;;2387239;62;1041;-75
2022/11/15 01:05:13;;;;;;;;;;;;;;;;;;2387006;62;1009;-75
2022/11/15 01:07:46;;;;;;;;;;;;;;;;;;2386862;62;1145;-75
2022/11/15 01:10:20;;;;;;;;;;;;;;;;;;2386760;54;798;-75
2022/11/15 01:12:56;;;;;;;;;;;;;;;;;;2386759;62;971;-74
2022/11/15 01:15:29;;;;;;;;;;;;;;;;;;2386846;54;972;-75
2022/11/15 01:18:02;;;;;;;;;;;;;;;;;;2386818;62;1317;-75
2022/11/15 01:20:35;;;;;;;;;;;;;;;;;;2386539;62;1939;-75
2022/11/15 01:23:08;;;;;;;;;;;;;;;;;;2382761;62;1856;-75
2022/11/15 01:25:41;;;;;;;;;;;;;;;;;;2387068;62;1226;-75
2022/11/15 01:28:17;;;;;;;;;;;;;;;;;;2387375;54;1030;-75
2022/11/15 01:30:50;;;;;;;;;;;;;;;;;;2382770;62;1516;-76
2022/11/15 01:33:23;;;;;;;;;;;;;;;;;;2386882;62;986;-75
2022/11/15 01:35:57;;;;;;;;;;;;;;;;;;2386881;62;1191;-75
2022/11/15 01:38:30;;;;;;;;;;;;;;;;;;2387105;62;917;-75
2022/11/15 01:41:03;;;;;;;;;;;;;;;;;;2386782;62;1935;-75
2022/11/15 01:43:39;;;;;;;;;;;;;;;;;;2386903;54;796;-74
2022/11/15 01:46:23;;;;;;;;;;;;;;;;;;2387166;54;1125;-74
2022/11/15 01:48:58;;;;;;;;;;;;;;;;;;2386891;54;1012;-74
2022/11/15 01:51:32;;;;;;;;;;;;;;;;;;2387476;62;999;-74
2022/11/15 01:54:10;;;;;;;;;;;;;;;;;;2387054;62;1014;-75
2022/11/15 01:56:48;;;;;;;;;;;;;;;;;;2386751;62;1253;-75
2022/11/15 01:59:25;;;;;;;;;;;;;;;;;;2387223;62;1054;-74
2022/11/15 02:01:59;;;;;;;;;;;;;;;;;;2386931;62;1994;-75
2022/11/15 02:04:33;;;;;;;;;;;;;;;;;;2386842;54;1051;-75
2022/11/15 02:07:08;;;;;;;;;;;;;;;;;;2386777;62;1236;-74
2022/11/15 02:09:41;;;;;;;;;;;;;;;;;;2386749;62;816;-75
2022/11/15 02:12:17;;;;;;;;;;;;;;;;;;2387248;54;920;-74
2022/11/15 02:14:55;;;;;;;;;;;;;;;;;;2386852;62;1051;-74
2022/11/15 02:17:42;;;;;;;;;;;;;;;;;;2386956;62;1172;-74
2022/11/15 02:20:36;;;;;;;;;;;;;;;;;;2387327;62;1944;-74
2022/11/15 02:23:24;;;;;;;;;;;;;;;;;;2387301;62;971;-75
2022/11/15 02:26:07;;;;;;;;;;;;;;;;;;2387216;54;1119;-75
2022/11/15 02:28:48;;;;;;;;;;;;;;;;;;2387029;54;1058;-75
2022/11/15 02:31:29;;;;;;;;;;;;;;;;;;2387670;54;808;-75
2022/11/15 02:34:06;;;;;;;;;;;;;;;;;;2387211;62;995;-75
2022/11/15 02:36:43;;;;;;;;;;;;;;;;;;2386967;62;1207;-74
2022/11/15 02:39:21;;;;;;;;;;;;;;;;;;2382741;62;1029;-75
2022/11/15 02:41:57;;;;;;;;;;;;;;;;;;2386715;62;1983;-75
2022/11/15 02:44:31;;;;;;;;;;;;;;;;;;2386839;54;1035;-74
2022/11/15 02:47:16;;;;;;;;;;;;;;;;;;2386971;54;1123;-75
2022/11/15 02:49:50;;;;;;;;;;;;;;;;;;2386822;54;1030;-74
2022/11/15 02:52:25;;;;;;;;;;;;;;;;;;2387129;54;818;-75
2022/11/15 02:54:59;;;;;;;;;;;;;;;;;;2386972;62;1024;-75
2022/11/15 02:57:42;;;;;;;;;;;;;;;;;;2387263;62;1202;-75
2022/11/15 03:00:17;;;;;;;;;;;;;;;;;;2387337;62;1912;-75
2022/11/15 03:03:11;;;;;;;;;;;;;;;;;;2386831;62;1028;-75
2022/11/15 03:05:46;;;;;;;;;;;;;;;;;;2386783;62;1211;-75
2022/11/15 03:08:25;;;;;;;;;;;;;;;;;;2387253;62;915;-75
2022/11/15 03:11:01;;;;;;;;;;;;;;;;;;2382851;62;935;-75
2022/11/15 03:13:38;;;;;;;;;;;;;;;;;;2387111;62;999;-75
2022/11/15 03:16:14;;;;;;;;;;;;;;;;;;2386770;62;1188;-75
2022/11/15 03:18:52;;;;;;;;;;;;;;;;;;2382260;62;1867;-74
2022/11/15 03:21:26;;;;;;;;;;;;;;;;;;2386890;62;1930;-74
2022/11/15 03:24:02;;;;;;;;;;;;;;;;;;2386978;62;1015;-75
2022/11/15 03:26:37;;;;;;;;;;;;;;;;;;2386742;54;1187;-75
2022/11/15 03:29:14;;;;;;;;;;;;;;;;;;2387034;62;1038;-74
2022/11/15 03:31:50;;;;;;;;;;;;;;;;;;2386630;62;1020;-75
2022/11/15 03:34:28;;;;;;;;;;;;;;;;;;2387072;62;1064;-75
2022/11/15 03:37:02;;;;;;;;;;;;;;;;;;2387019;62;1250;-75
2022/11/15 03:39:35;;;;;;;;;;;;;;;;;;2386612;62;1016;-75
2022/11/15 03:42:14;;;;;;;;;;;;;;;;;;2387265;54;1931;-75
2022/11/15 03:44:51;;;;;;;;;;;;;;;;;;2386386;62;1008;-75
2022/11/15 03:47:27;;;;;;;;;;;;;;;;;;2386976;62;1190;-75
2022/11/15 03:50:04;;;;;;;;;;;;;;;;;;2387184;54;1025;-75
2022/11/15 03:52:38;;;;;;;;;;;;;;;;;;2386907;54;1011;-75
2022/11/15 03:55:12;;;;;;;;;;;;;;;;;;2387169;62;1050;-75
2022/11/15 03:57:46;;;;;;;;;;;;;;;;;;2386987;62;1189;-75
2022/11/15 04:00:19;;;;;;;;;;;;;;;;;;2386839;62;1034;-75
2022/11/15 04:02:53;;;;;;;;;;;;;;;;;;2382785;62;1929;-75
2022/11/15 04:05:28;;;;;;;;;;;;;;;;;;2386847;62;848;-75
2022/11/15 04:08:02;;;;;;;;;;;;;;;;;;2387105;62;1302;-75
2022/11/15 04:10:35;;;;;;;;;;;;;;;;;;2387009;54;1026;-75
2022/11/15 04:13:08;;;;;;;;;;;;;;;;;;2387228;62;884;-75
2022/11/15 04:15:41;;;;;;;;;;;;;;;;;;2386650;54;1136;-75
2022/11/15 04:18:14;;;;;;;;;;;;;;;;;;2387064;54;1029;-75
2022/11/15 04:42:38;;;;;;;;;;;;;;;;;;2385924;54;3334;-75
2022/11/15 04:45:12;;;;;;;;;;;;;;;;;;2390740;62;814;-75
2022/11/15 04:47:46;;;;;;;;;;;;;;;;;;2390801;62;782;-75
2022/11/15 04:50:19;;;;;;;;;;;;;;;;;;2386977;62;1915;-77
2022/11/15 04:52:54;;;;;;;;;;;;;;;;;;2391344;62;1105;-75
2022/11/15 04:55:27;;;;;;;;;;;;;;;;;;2391280;62;979;-75
2022/11/15 05:08:43;;;;;;;;;;;;;;;;;;2388668;54;1436;-75
2022/11/15 05:11:16;;;;;;;;;;;;;;;;;;2390481;62;1052;-75
2022/11/15 05:13:49;;;;;;;;;;;;;;;;;;2391056;62;998;-75
2022/11/15 05:16:23;;;;;;;;;;;;;;;;;;2391080;62;1198;-75
2022/11/15 05:18:56;;;;;;;;;;;;;;;;;;2390916;62;991;-75
2022/11/15 05:21:30;;;;;;;;;;;;;;;;;;2390863;62;1916;-74
2022/11/15 05:24:06;;;;;;;;;;;;;;;;;;2390968;62;1071;-75
2022/11/15 05:26:39;;;;;;;;;;;;;;;;;;2390965;62;1117;-75
2022/11/15 05:29:13;;;;;;;;;;;;;;;;;;2391051;62;950;-75
2022/11/15 05:31:46;;;;;;;;;;;;;;;;;;2390651;62;1043;-75
2022/11/15 05:34:21;;;;;;;;;;;;;;;;;;2391232;54;883;-75
2022/11/15 05:36:54;;;;;;;;;;;;;;;;;;2390712;54;1197;-75
2022/11/15 05:39:30;;;;;;;;;;;;;;;;;;2390738;62;782;-75
2022/11/15 05:42:07;;;;;;;;;;;;;;;;;;2390957;54;1924;-75
2022/11/15 05:44:42;;;;;;;;;;;;;;;;;;2391027;62;985;-75
2022/11/15 05:47:17;;;;;;;;;;;;;;;;;;2391048;62;1192;-75
2022/11/15 05:49:51;;;;;;;;;;;;;;;;;;2391270;62;975;-75
2022/11/15 05:52:26;;;;;;;;;;;;;;;;;;2391165;62;1038;-75
2022/11/15 05:55:02;;;;;;;;;;;;;;;;;;2390972;54;1071;-76
2022/11/15 05:57:35;;;;;;;;;;;;;;;;;;2391234;62;1143;-75
2022/11/15 06:00:09;;;;;;;;;;;;;;;;;;2390718;62;1034;-75
2022/11/15 06:02:43;;;;;;;;;;;;;;;;;;2390851;62;1934;-75
2022/11/15 06:05:16;;;;;;;;;;;;;;;;;;2390977;62;1026;-75
2022/11/15 06:07:49;;;;;;;;;;;;;;;;;;2390800;54;1281;-75
2022/11/15 06:10:25;;;;;;;;;;;;;;;;;;2390957;62;1032;-75
2022/11/15 06:13:01;;;;;;;;;;;;;;;;;;2391140;54;972;-75
2022/11/15 06:15:34;;;;;;;;;;;;;;;;;;2391436;54;872;-75
2022/11/15 06:18:08;;;;;;;;;;;;;;;;;;2391509;54;1122;-75
2022/11/15 06:20:41;;;;;;;;;;;;;;;;;;2391143;62;1022;-75
2022/11/15 06:23:14;;;;;;;;;;;;;;;;;;2391113;62;1982;-75
2022/11/15 06:25:50;;;;;;;;;;;;;;;;;;2391187;62;1030;-75
2022/11/15 06:28:23;;;;;;;;;;;;;;;;;;2391115;54;1142;-75
2022/11/15 06:30:56;;;;;;;;;;;;;;;;;;2391268;62;1026;-75
2022/11/15 06:33:29;;;;;;;;;;;;;;;;;;2391179;62;1063;-75
2022/11/15 06:36:03;;;;;;;;;;;;;;;;;;2390931;62;1046;-75
2022/11/15 06:38:36;;;;;;;;;;;;;;;;;;2390824;62;1187;-75
2022/11/15 06:41:13;;;;;;;;;;;;;;;;;;2391330;54;876;-74
2022/11/15 06:43:46;;;;;;;;;;;;;;;;;;2386871;62;1931;-75
2022/11/15 06:46:19;;;;;;;;;;;;;;;;;;2390916;62;1178;-75
2022/11/15 06:48:53;;;;;;;;;;;;;;;;;;2391259;62;956;-75
2022/11/15 06:51:26;;;;;;;;;;;;;;;;;;2391051;62;1042;-75
2022/11/15 06:53:59;;;;;;;;;;;;;;;;;;2391182;55;1026;-75
2022/11/15 06:56:36;;;;;;;;;;;;;;;;;;2391109;62;1119;-75
2022/11/15 06:59:09;;;;;;;;;;;;;;;;;;2390861;62;1022;-75
2022/11/15 07:01:42;;;;;;;;;;;;;;;;;;2391004;62;1941;-75
2022/11/15 07:04:15;;;;;;;;;;;;;;;;;;2391202;62;1034;-75
2022/11/15 07:06:48;;;;;;;;;;;;;;;;;;2391105;54;1191;-75
2022/11/15 07:09:22;;;;;;;;;;;;;;;;;;2391111;62;837;-75
2022/11/15 07:11:58;;;;;;;;;;;;;;;;;;2391329;62;968;-75
2022/11/15 07:14:31;;;;;;;;;;;;;;;;;;2390981;62;1007;-75
2022/11/15 07:17:05;;;;;;;;;;;;;;;;;;2391253;54;1165;-75
2022/11/15 07:19:38;;;;;;;;;;;;;;;;;;2390958;54;1159;-75
2022/11/15 07:22:11;;;;;;;;;;;;;;;;;;2387266;62;1981;-75
2022/11/15 07:24:45;;;;;;;;;;;;;;;;;;2391128;62;952;-75
2022/11/15 07:27:20;;;;;;;;;;;;;;;;;;2391115;62;1128;-75
2022/11/15 07:29:54;;;;;;;;;;;;;;;;;;2391067;62;1006;-75
2022/11/15 07:32:27;;;;;;;;;;;;;;;;;;2391169;62;1026;-75
2022/11/15 07:35:00;;;;;;;;;;;;;;;;;;2391293;62;1025;-75
2022/11/15 07:37:33;;;;;;;;;;;;;;;;;;2391192;62;1210;-75
2022/11/15 07:40:07;;;;;;;;;;;;;;;;;;2391323;62;1005;-76
2022/11/15 07:42:58;;;;;;;;;;;;;;;;;;2391216;54;1928;-75
2022/11/15 07:45:33;;;;;;;;;;;;;;;;;;2391171;54;1034;-76
2022/11/15 07:48:06;;;;;;;;;;;;;;;;;;2391069;62;1210;-75
2022/11/15 07:50:42;;;;;;;;;;;;;;;;;;2391033;54;1016;-75
2022/11/15 07:53:15;;;;;;;;;;;;;;;;;;2391115;62;1063;-75
2022/11/15 07:55:49;;;;;;;;;;;;;;;;;;2391489;54;810;-75
2022/11/15 07:58:24;;;;;;;;;;;;;;;;;;2391123;62;1245;-75
2022/11/15 08:00:58;;;;;;;;;;;;;;;;;;2391278;62;864;-75
2022/11/15 08:03:31;;;;;;;;;;;;;;;;;;2390827;62;1921;-75
2022/11/15 08:06:04;;;;;;;;;;;;;;;;;;2391160;62;1047;-75
2022/11/15 08:08:37;;;;;;;;;;;;;;;;;;2391007;54;1188;-75
2022/11/15 08:11:10;;;;;;;;;;;;;;;;;;2391110;62;1003;-75
2022/11/15 08:13:46;;;;;;;;;;;;;;;;;;2391036;62;1031;-75
2022/11/15 08:16:19;;;;;;;;;;;;;;;;;;2390966;62;1194;-75
2022/11/15 08:18:52;;;;;;;;;;;;;;;;;;2387124;62;1134;-75
2022/11/15 08:21:26;;;;;;;;;;;;;;;;;;2390986;54;1035;-75
2022/11/15 08:23:59;;;;;;;;;;;;;;;;;;2387419;62;1975;-75
2022/11/15 08:26:32;;;;;;;;;;;;;;;;;;2390758;62;1223;-75
2022/11/15 08:29:08;;;;;;;;;;;;;;;;;;2386704;62;1729;-75
2022/11/15 08:31:41;;;;;;;;;;;;;;;;;;2387035;62;1171;-75
2022/11/15 08:34:14;;;;;;;;;;;;;;;;;;2386873;62;1164;-75
2022/11/15 08:36:47;;;;;;;;;;;;;;;;;;2386581;62;1470;-75
2022/11/15 08:39:21;;;;;;;;;;;;;;;;;;2390466;62;915;-75
2022/11/15 08:41:54;;;;;;;;;;;;;;;;;;2390667;62;1096;-76
2022/11/15 08:44:30;;;;;;;;;;;;;;;;;;2390872;62;1984;-75
2022/11/15 08:47:03;;;;;;;;;;;;;;;;;;2391321;62;1193;-75
2022/11/15 08:49:36;;;;;;;;;;;;;;;;;;2386792;62;1010;-76
2022/11/15 08:52:09;;;;;;;;;;;;;;;;;;2391423;62;1045;-75
2022/11/15 08:54:42;;;;;;;;;;;;;;;;;;2386930;62;1430;-75
2022/11/15 08:57:16;;;;;;;;;;;;;;;;;;2391435;62;1267;-75
2022/11/15 08:59:51;;;;;;;;;;;;;;;;;;2391359;54;1033;-75
2022/11/15 09:02:25;;;;;;;;;;;;;;;;;;2391549;54;1915;-76
2022/11/15 09:04:58;;;;;;;;;;;;;;;;;;2391313;62;1030;-75
2022/11/15 09:07:31;;;;;;;;;;;;;;;;;;2387022;54;1202;-76
2022/11/15 09:10:05;;;;;;;;;;;;;;;;;;2387142;62;1387;-76
2022/11/15 09:12:38;;;;;;;;;;;;;;;;;;2391113;62;1000;-75
2022/11/15 09:15:14;;;;;;;;;;;;;;;;;;2387298;62;1122;-75
2022/11/15 09:17:47;;;;;;;;;;;;;;;;;;2391297;62;1127;-76
2022/11/15 09:20:20;;;;;;;;;;;;;;;;;;2391351;62;1008;-76
2022/11/15 09:22:53;;;;;;;;;;;;;;;;;;2391392;62;1922;-76
2022/11/15 09:25:27;;;;;;;;;;;;;;;;;;2391214;54;1042;-76
2022/11/15 09:28:00;;;;;;;;;;;;;;;;;;2391321;62;1199;-76
2022/11/15 09:30:36;;;;;;;;;;;;;;;;;;2391125;62;800;-76
2022/11/15 09:33:10;;;;;;;;;;;;;;;;;;2391191;62;962;-75
2022/11/15 09:35:43;;;;;;;;;;;;;;;;;;2386994;62;1406;-76
2022/11/15 09:38:16;;;;;;;;;;;;;;;;;;2391403;54;1155;-76
2022/11/15 09:40:51;;;;;;;;;;;;;;;;;;2391254;62;1066;-76
2022/11/15 09:43:34;;;;;;;;;;;;;;;;;;2391239;62;1935;-76
2022/11/15 09:46:15;;;;;;;;;;;;;;;;;;2391406;62;955;-76
2022/11/15 09:48:59;;;;;;;;;;;;;;;;;;2390802;62;1006;-76
2022/11/15 09:51:33;;;;;;;;;;;;;;;;;;2391433;62;1057;-76
2022/11/15 09:54:11;;;;;;;;;;;;;;;;;;2391385;62;1042;-76
2022/11/15 09:56:46;;;;;;;;;;;;;;;;;;2391393;62;1254;-76
2022/11/15 09:59:31;;;;;;;;;;;;;;;;;;2391142;62;1057;-76
2022/11/15 10:02:12;;;;;;;;;;;;;;;;;;2391544;62;975;-76
2022/11/15 10:04:46;;;;;;;;;;;;;;;;;;2391803;62;1918;-76
2022/11/15 10:07:21;;;;;;;;;;;;;;;;;;2392955;54;1278;-76
2022/11/15 10:09:56;;;;;;;;;;;;;;;;;;2393604;62;1020;-76
2022/11/15 10:12:30;;;;;;;;;;;;;;;;;;2392529;62;1031;-77
2022/11/15 10:15:04;;;;;;;;;;;;;;;;;;2388140;62;1332;-76
2022/11/15 10:17:53;;;;;;;;;;;;;;;;;;2392437;54;1113;-76
2022/11/15 10:20:27;;;;;;;;;;;;;;;;;;2392396;54;1030;-76
2022/11/15 10:23:02;;;;;;;;;;;;;;;;;;2388590;62;2048;-76
2022/11/15 10:25:38;;;;;;;;;;;;;;;;;;2392430;62;1010;-76
2022/11/15 10:28:14;;;;;;;;;;;;;;;;;;2390621;54;1244;-76
2022/11/15 10:30:48;;;;;;;;;;;;;;;;;;2391213;62;1047;-76
2022/11/15 10:33:27;;;;;;;;;;;;;;;;;;2387725;62;1170;-75
2022/11/15 10:36:22;;;;;;;;;;;;;;;;;;2392278;62;1043;-76
2022/11/15 10:38:58;;;;;;;;;;;;;;;;;;2390508;62;1701;-75
2022/11/15 10:41:34;;;;;;;;;;;;;;;;;;2392228;62;1050;-76
2022/11/15 10:44:13;;;;;;;;;;;;;;;;;;2392318;62;1983;-77
2022/11/15 10:46:50;;;;;;;;;;;;;;;;;;2388434;62;1224;-76
2022/11/15 10:49:28;;;;;;;;;;;;;;;;;;2392162;62;1068;-76
2022/11/15 10:52:02;;;;;;;;;;;;;;;;;;2392351;62;1051;-76
2022/11/15 10:54:37;;;;;;;;;;;;;;;;;;2392346;62;1027;-76
2022/11/15 10:57:14;;;;;;;;;;;;;;;;;;2391952;62;1199;-76
2022/11/15 10:59:49;;;;;;;;;;;;;;;;;;2391929;62;1056;-76
2022/11/15 11:02:30;;;;;;;;;;;;;;;;;;2392356;62;1018;-76
2022/11/15 11:05:07;;;;;;;;;;;;;;;;;;2392129;62;1978;-76
2022/11/15 11:18:27;;;;;;;;;;;;;;;;;;2389455;61;1692;-75
2022/11/15 11:21:05;;;;;;;;;;;;;;;;;;2390670;62;992;-76
2022/11/15 11:23:47;;;;;;;;;;;;;;;;;;2387138;62;1931;-76
2022/11/15 11:26:32;;;;;;;;;;;;;;;;;;2391556;54;906;-76
2022/11/15 11:29:15;;;;;;;;;;;;;;;;;;2391100;62;1131;-76
2022/11/15 11:31:53;;;;;;;;;;;;;;;;;;2391674;62;1054;-76
2022/11/15 11:34:34;;;;;;;;;;;;;;;;;;2391775;62;1034;-76
2022/11/15 11:37:14;;;;;;;;;;;;;;;;;;2390729;62;1224;-75
2022/11/15 11:39:53;;;;;;;;;;;;;;;;;;2391467;62;1240;-76
2022/11/15 11:42:32;;;;;;;;;;;;;;;;;;2391661;62;1034;-76
2022/11/15 11:45:14;;;;;;;;;;;;;;;;;;2391578;62;1923;-76
2022/11/15 11:47:49;;;;;;;;;;;;;;;;;;2391496;54;1198;-76
2022/11/15 11:50:25;;;;;;;;;;;;;;;;;;2387299;62;1244;-76
2022/11/15 11:53:06;;;;;;;;;;;;;;;;;;2391794;62;952;-76
2022/11/15 11:55:41;;;;;;;;;;;;;;;;;;2392110;62;1011;-76
2022/11/15 11:58:16;;;;;;;;;;;;;;;;;;2391654;62;1234;-76
2022/11/15 12:00:53;;;;;;;;;;;;;;;;;;2387385;62;1205;-76
2022/11/15 12:03:31;;;;;;;;;;;;;;;;;;2388036;62;1987;-76
2022/11/15 12:06:08;;;;;;;;;;;;;;;;;;2387815;62;1583;-76
2022/11/15 12:08:48;;;;;;;;;;;;;;;;;;2388163;62;1167;-76
2022/11/15 12:11:24;;;;;;;;;;;;;;;;;;2392095;62;959;-76
2022/11/15 12:14:00;;;;;;;;;;;;;;;;;;2391936;62;1024;-76
2022/11/15 12:16:34;;;;;;;;;;;;;;;;;;2387632;54;1180;-75
2022/11/15 12:19:08;;;;;;;;;;;;;;;;;;2391794;54;1169;-75
2022/11/15 12:21:44;;;;;;;;;;;;;;;;;;2391802;62;991;-76
2022/11/15 12:24:23;;;;;;;;;;;;;;;;;;2391536;62;1962;-76
2022/11/15 12:27:00;;;;;;;;;;;;;;;;;;2386954;62;1709;-76
2022/11/15 12:29:35;;;;;;;;;;;;;;;;;;2391455;62;970;-75
2022/11/15 12:32:27;;;;;;;;;;;;;;;;;;2391648;62;1035;-75
2022/11/15 12:35:00;;;;;;;;;;;;;;;;;;2391482;54;1058;-76
2022/11/15 12:37:52;;;;;;;;;;;;;;;;;;2387289;62;1559;-75
2022/11/15 12:40:29;;;;;;;;;;;;;;;;;;2391568;62;1073;-76
2022/11/15 12:43:07;;;;;;;;;;;;;;;;;;2391727;62;1034;-76
2022/11/15 12:45:41;;;;;;;;;;;;;;;;;;2387774;62;1980;-76
2022/11/15 12:48:33;;;;;;;;;;;;;;;;;;2391447;62;1126;-76
2022/11/15 12:51:07;;;;;;;;;;;;;;;;;;2391851;62;1102;-76
2022/11/15 12:53:40;;;;;;;;;;;;;;;;;;2391838;54;1087;-77
2022/11/15 12:56:26;;;;;;;;;;;;;;;;;;2391522;62;1030;-76
2022/11/15 12:59:02;;;;;;;;;;;;;;;;;;2391316;62;1221;-76
2022/11/15 13:02:08;;;;;;;;;;;;;;;;;;2391842;62;1029;-76
2022/11/15 13:04:41;;;;;;;;;;;;;;;;;;2369531;62;1932;-77
2022/11/15 13:07:37;;;;;;;;;;;;;;;;;;2369395;62;1467;-76
2022/11/15 13:10:31;;;;;;;;;;;;;;;;;;2381825;62;1132;-75
2022/11/15 13:13:12;;;;;;;;;;;;;;;;;;2391439;62;789;-76
2022/11/15 13:15:56;;;;;;;;;;;;;;;;;;2387120;62;1411;-76
2022/11/15 13:18:36;;;;;;;;;;;;;;;;;;2387411;54;1188;-76
2022/11/15 13:24:16;;;;;;;;;;;;;;;;;;2387658;54;1922;-76
2022/11/15 13:27:01;;;;;;;;;;;;;;;;;;2387864;62;1339;-76
2022/11/15 13:29:39;;;;;;;;;;;;;;;;;;2388271;62;1176;-76
2022/11/15 13:32:16;;;;;;;;;;;;;;;;;;2387906;62;1529;-76
2022/11/15 13:34:56;;;;;;;;;;;;;;;;;;2387959;62;1535;-76
2022/11/15 13:37:36;;;;;;;;;;;;;;;;;;2388179;62;1350;-76
2022/11/15 13:40:27;;;;;;;;;;;;;;;;;;2392397;62;878;-76
2022/11/15 13:43:11;;;;;;;;;;;;;;;;;;2392204;54;940;-76
2022/11/15 13:46:07;;;;;;;;;;;;;;;;;;2387996;62;1931;-76
2022/11/15 13:48:42;;;;;;;;;;;;;;;;;;2388452;62;1257;-76
2022/11/15 13:51:21;;;;;;;;;;;;;;;;;;2390903;62;1204;-76
2022/11/15 13:53:59;;;;;;;;;;;;;;;;;;2389683;62;1398;-76
2022/11/15 13:56:35;;;;;;;;;;;;;;;;;;2393217;62;957;-76
2022/11/15 13:59:14;;;;;;;;;;;;;;;;;;2388382;62;1379;-76
2022/11/15 14:01:53;;;;;;;;;;;;;;;;;;2392011;54;952;-76
2022/11/15 14:04:33;;;;;;;;;;;;;;;;;;2388322;62;1932;-76
2022/11/15 14:07:06;;;;;;;;;;;;;;;;;;2387357;62;1233;-76
2022/11/15 14:09:41;;;;;;;;;;;;;;;;;;2388176;62;1236;-76
2022/11/15 14:12:26;;;;;;;;;;;;;;;;;;2392097;62;1095;-76
2022/11/15 14:15:02;;;;;;;;;;;;;;;;;;2387901;54;1210;-76
2022/11/15 14:20:40;;;;;;;;;;;;;;;;;;2395719;54;1588;-77
2022/11/15 14:23:29;;;;;;;;;;;;;;;;;;2392344;54;986;-76
2022/11/15 14:26:17;;;;;;;;;;;;;;;;;;2392124;62;1920;-77
2022/11/15 14:29:00;;;;;;;;;;;;;;;;;;2391340;54;1290;-77
2022/11/15 14:31:36;;;;;;;;;;;;;;;;;;2391979;54;943;-76
2022/11/15 14:34:23;;;;;;;;;;;;;;;;;;2384687;54;565;-73
2022/11/15 14:36:58;;;;;;;;;;;;;;;;;;2385993;54;840;-72
2022/11/15 14:39:32;;;;;;;;;;;;;;;;;;2386900;54;958;-73
2022/11/15 14:42:06;;;;;;;;;;;;;;;;;;2386542;62;1193;-73
2022/11/15 14:44:39;;;;;;;;;;;;;;;;;;2386831;62;1982;-73
2022/11/15 14:47:12;;;;;;;;;;;;;;;;;;2386645;62;893;-72
2022/11/15 14:49:46;;;;;;;;;;;;;;;;;;2386617;62;1047;-73
2022/11/15 14:52:27;;;;;;;;;;;;;;;;;;2382855;62;1222;-72
2022/11/15 14:55:02;;;;;;;;;;;;;;;;;;2387005;54;1043;-73
2022/11/15 14:57:35;;;;;;;;;;;;;;;;;;2386816;54;1208;-72
2022/11/15 15:00:10;;;;;;;;;;;;;;;;;;2386918;54;874;-72
2022/11/15 15:02:44;;;;;;;;;;;;;;;;;;2386986;62;1111;-73
2022/11/15 15:05:18;;;;;;;;;;;;;;;;;;2387024;62;1932;-72
2022/11/15 15:07:55;;;;;;;;;;;;;;;;;;2386440;54;1131;-73
2022/11/15 15:10:30;;;;;;;;;;;;;;;;;;2386731;62;1031;-73
2022/11/15 15:13:03;;;;;;;;;;;;;;;;;;2386747;62;1197;-73
2022/11/15 15:15:38;;;;;;;;;;;;;;;;;;2387288;62;833;-72
2022/11/15 15:18:11;;;;;;;;;;;;;;;;;;2386874;62;1028;-73
2022/11/15 15:20:45;;;;;;;;;;;;;;;;;;2386716;62;1036;-72
2022/11/15 15:23:23;;;;;;;;;;;;;;;;;;2387099;62;1228;-73
2022/11/15 15:25:56;;;;;;;;;;;;;;;;;;2387598;62;1929;-72
2022/11/15 15:28:30;;;;;;;;;;;;;;;;;;2387790;54;801;-72
2022/11/15 15:31:03;;;;;;;;;;;;;;;;;;2387919;54;836;-73
2022/11/15 15:33:36;;;;;;;;;;;;;;;;;;2387748;54;1138;-73
2022/11/15 15:36:12;;;;;;;;;;;;;;;;;;2387488;62;1022;-73
2022/11/15 15:38:48;;;;;;;;;;;;;;;;;;2386640;62;1007;-73
2022/11/15 15:41:21;;;;;;;;;;;;;;;;;;2385790;62;1023;-73
2022/11/15 15:43:54;;;;;;;;;;;;;;;;;;2387315;62;1206;-72
2022/11/15 15:46:27;;;;;;;;;;;;;;;;;;2387494;62;1931;-73
2022/11/15 15:49:00;;;;;;;;;;;;;;;;;;2387790;62;863;-72
2022/11/15 15:51:33;;;;;;;;;;;;;;;;;;2387254;62;971;-73
2022/11/15 15:54:09;;;;;;;;;;;;;;;;;;2387277;54;1202;-73
2022/11/15 15:56:42;;;;;;;;;;;;;;;;;;2387731;62;971;-73
2022/11/15 15:59:16;;;;;;;;;;;;;;;;;;2387510;62;1021;-72
2022/11/15 16:01:49;;;;;;;;;;;;;;;;;;2387679;54;1195;-73
2022/11/15 16:04:22;;;;;;;;;;;;;;;;;;2387785;54;1000;-73
2022/11/15 16:06:55;;;;;;;;;;;;;;;;;;2387794;62;1987;-72
2022/11/15 16:12:19;;;;;;;;;;;;;;;;;;2388235;62;1118;-73
2022/11/15 16:14:53;;;;;;;;;;;;;;;;;;2387697;62;1042;-72
2022/11/15 16:17:27;;;;;;;;;;;;;;;;;;2388153;62;1022;-73
2022/11/15 16:20:00;;;;;;;;;;;;;;;;;;2387653;62;1145;-73
2022/11/15 16:22:36;;;;;;;;;;;;;;;;;;2387353;62;1208;-72
2022/11/15 16:25:12;;;;;;;;;;;;;;;;;;2387552;62;1896;-72
2022/11/15 16:27:46;;;;;;;;;;;;;;;;;;2387356;62;1049;-73
2022/11/15 16:30:21;;;;;;;;;;;;;;;;;;2387156;54;1026;-73
2022/11/15 16:32:54;;;;;;;;;;;;;;;;;;2387650;54;1193;-72
2022/11/15 16:35:27;;;;;;;;;;;;;;;;;;2387641;54;1038;-72
2022/11/15 16:38:00;;;;;;;;;;;;;;;;;;2387291;62;1030;-73
2022/11/15 16:40:36;;;;;;;;;;;;;;;;;;2387215;62;1003;-73
2022/11/15 16:43:09;;;;;;;;;;;;;;;;;;2382455;62;2223;-73
2022/11/15 16:45:43;;;;;;;;;;;;;;;;;;2386864;54;1966;-73
2022/11/15 16:48:24;;;;;;;;;;;;;;;;;;2386823;62;1018;-72
2022/11/15 16:50:58;;;;;;;;;;;;;;;;;;2386912;62;955;-72
2022/11/15 16:53:31;;;;;;;;;;;;;;;;;;2386873;62;1213;-72
2022/11/15 16:56:15;;;;;;;;;;;;;;;;;;2386876;62;1057;-73
2022/11/15 16:58:48;;;;;;;;;;;;;;;;;;2387434;62;1021;-72
2022/11/15 17:01:24;;;;;;;;;;;;;;;;;;2387853;62;1043;-73
2022/11/15 17:03:57;;;;;;;;;;;;;;;;;;2387590;62;1119;-73
2022/11/15 17:06:30;;;;;;;;;;;;;;;;;;2387864;55;1915;-73
2022/11/15 17:09:03;;;;;;;;;;;;;;;;;;2387559;62;1023;-73
2022/11/15 17:11:39;;;;;;;;;;;;;;;;;;2388005;62;1015;-72
2022/11/15 17:14:13;;;;;;;;;;;;;;;;;;2387670;62;1012;-72
2022/11/15 17:16:47;;;;;;;;;;;;;;;;;;2387863;62;1037;-73
2022/11/15 17:19:21;;;;;;;;;;;;;;;;;;2387770;62;1011;-73
2022/11/15 17:21:54;;;;;;;;;;;;;;;;;;2387722;62;1206;-73
2022/11/15 17:24:28;;;;;;;;;;;;;;;;;;2388055;62;1015;-72
2022/11/15 17:27:03;;;;;;;;;;;;;;;;;;2387855;54;1982;-72
2022/11/15 17:29:37;;;;;;;;;;;;;;;;;;2387744;62;1054;-73
2022/11/15 17:32:10;;;;;;;;;;;;;;;;;;2387644;54;1158;-72
2022/11/15 17:34:43;;;;;;;;;;;;;;;;;;2383599;62;1381;-72
2022/11/15 17:37:16;;;;;;;;;;;;;;;;;;2387655;62;1034;-72
2022/11/15 17:39:49;;;;;;;;;;;;;;;;;;2387725;54;873;-72
2022/11/15 17:42:25;;;;;;;;;;;;;;;;;;2387902;62;1235;-72
2022/11/15 17:44:58;;;;;;;;;;;;;;;;;;2387663;62;1059;-72
2022/11/15 17:47:32;;;;;;;;;;;;;;;;;;2387780;54;1090;-72
2022/11/15 17:50:05;;;;;;;;;;;;;;;;;;2387420;62;970;-73
2022/11/15 17:52:38;;;;;;;;;;;;;;;;;;2387446;62;1198;-72
2022/11/15 17:55:11;;;;;;;;;;;;;;;;;;2387648;62;945;-73
2022/11/15 17:57:48;;;;;;;;;;;;;;;;;;2387639;62;1046;-72
2022/11/15 18:00:21;;;;;;;;;;;;;;;;;;2387632;62;1021;-72
2022/11/15 18:02:54;;;;;;;;;;;;;;;;;;2387766;62;1241;-72
2022/11/15 18:05:27;;;;;;;;;;;;;;;;;;2388009;54;1958;-72
2022/11/15 18:08:00;;;;;;;;;;;;;;;;;;2388133;62;1043;-72
2022/11/15 18:10:34;;;;;;;;;;;;;;;;;;2388238;62;801;-73
2022/11/15 18:13:09;;;;;;;;;;;;;;;;;;2387691;62;1134;-73
2022/11/15 18:15:43;;;;;;;;;;;;;;;;;;2388197;62;942;-72
2022/11/15 18:18:16;;;;;;;;;;;;;;;;;;2387966;62;1038;-72
2022/11/15 18:20:49;;;;;;;;;;;;;;;;;;2387783;62;1022;-72
2022/11/15 18:23:22;;;;;;;;;;;;;;;;;;2388209;54;1189;-73
2022/11/15 18:25:55;;;;;;;;;;;;;;;;;;2387955;62;1939;-73
2022/11/15 18:28:35;;;;;;;;;;;;;;;;;;2388064;62;1039;-73
2022/11/15 18:31:14;;;;;;;;;;;;;;;;;;2387639;62;1024;-73
2022/11/15 18:33:48;;;;;;;;;;;;;;;;;;2388011;54;1217;-72
2022/11/15 18:36:22;;;;;;;;;;;;;;;;;;2387650;55;1035;-73
2022/11/15 18:38:56;;;;;;;;;;;;;;;;;;2387735;62;1011;-73
2022/11/15 18:41:29;;;;;;;;;;;;;;;;;;2387737;62;1022;-73
2022/11/15 18:44:06;;;;;;;;;;;;;;;;;;2387732;62;1197;-73
2022/11/15 18:46:39;;;;;;;;;;;;;;;;;;2387869;62;1900;-73
2022/11/15 18:49:14;;;;;;;;;;;;;;;;;;2383719;55;1203;-73
2022/11/15 18:51:47;;;;;;;;;;;;;;;;;;2387359;62;1237;-73
2022/11/15 18:54:20;;;;;;;;;;;;;;;;;;2387967;54;1034;-73
2022/11/15 18:56:53;;;;;;;;;;;;;;;;;;2387779;62;1028;-73